< Typhoon 198402 1984 Season Typhoon 198404 >
Typhoon 198403 (ALEX)
General InformationTrack Information on Google MapsDetailed Wind InformationList of All Images || Disaster Info.ResourceGoogle EarthGE AnimationAtom FeedGeoJSON
Detalied Best Track (Time Zone = UTC)
Year Month Day Hour Lat. Long. Pressure (hPa) Wind (kt) Class Image Chart
1984 7 1 00 16.1 124.6 1006 0 2 Image Chart
1984 7 1 06 16.5 124.3 1004 0 2 Image Chart
1984 7 1 12 16.9 124.1 1000 0 2 Image Chart
1984 7 1 18 17.1 123.9 996 40 3 Image Chart
1984 7 2 00 17.4 123.7 985 40 3 Image Chart
1984 7 2 06 18.1 123.3 985 60 4 Image Chart
1984 7 2 12 19.1 122.6 980 70 5 Image Chart
1984 7 2 18 20.5 121.8 975 65 5 Image Chart
1984 7 3 00 21.6 121.6 960 80 5 Image Chart
1984 7 3 06 23.2 121.5 970 80 5 Image Chart
1984 7 3 12 25.3 121.1 990 50 4 Image Chart
1984 7 3 18 26.3 121.1 985 50 4 Image Chart
1984 7 4 00 27.8 121.1 990 40 3 Image Chart
1984 7 4 06 29.3 121.4 996 40 3 Image Chart
1984 7 4 12 31.1 122.7 1000 0 2 Image Chart
1984 7 4 18 32.5 124.0 1004 0 2 Image Chart
1984 7 5 00 34.0 125.0 1004 0 6 Image Chart
1984 7 5 06 35.0 126.0 1004 0 6 Image Chart
1984 7 5 12 36.0 131.0 1008 0 6 Image Chart
1984 7 5 18 37.0 135.0 1009 0 6 Image Chart
1984 7 6 00 38.0 139.0 1010 0 6 Image Chart
Japan Meteorological Agency Best Track Data | Correction Date : 1992-10-21
< Typhoon 198402 1984 Season Typhoon 198404 >

Help